Time;durP1;ratioP1;P1;durP2;ratioP2;P2;SDS_P1;SDS_P2;PMS_P1;PMS_P2;Temp;Humidity;BMP_temperature;BMP_pressure;BME280_temperature;BME280_humidity;BME280_pressure;Samples;Min_cycle;Max_cycle;Signal;HPM_P1;HPM_P2
2022/09/01 00:00:15;;;;;;;18.95;9.15;;;;;;;16.32;100.00;100074.94;4864823;29;20457;-84
2022/09/01 00:02:41;;;;;;;23.48;10.02;;;;;;;16.28;100.00;100071.88;4836309;29;20030;-84
2022/09/01 00:05:07;;;;;;;18.20;11.15;;;;;;;16.12;100.00;100057.25;4835029;29;20041;-84
2022/09/01 00:07:34;;;;;;;20.40;9.50;;;;;;;16.18;100.00;100066.19;4848633;29;20380;-83
2022/09/01 00:10:05;;;;;;;20.42;11.02;;;;;;;16.04;100.00;100066.22;4833604;29;20029;-84
2022/09/01 00:12:32;;;;;;;15.52;9.02;;;;;;;16.03;100.00;100048.69;4849483;29;20069;-82
2022/09/01 00:14:58;;;;;;;14.80;8.95;;;;;;;16.01;100.00;100048.09;4850390;29;20037;-84
2022/09/01 00:17:24;;;;;;;20.98;9.75;;;;;;;16.16;100.00;100060.31;4847818;29;20040;-84
2022/09/01 00:19:52;;;;;;;18.67;9.13;;;;;;;16.07;100.00;100054.41;4848061;29;20120;-85
2022/09/01 00:22:20;;;;;;;19.33;10.75;;;;;;;16.02;100.00;100064.81;4848681;29;20471;-84
2022/09/01 00:24:46;;;;;;;22.70;9.80;;;;;;;15.94;100.00;100065.81;4848304;29;20038;-83
2022/09/01 00:27:11;;;;;;;17.80;10.05;;;;;;;16.09;100.00;100058.44;4847827;29;20045;-84
2022/09/01 00:29:37;;;;;;;19.20;9.70;;;;;;;16.08;100.00;100056.81;4868030;29;20034;-84
2022/09/01 00:32:06;;;;;;;17.15;10.43;;;;;;;16.11;100.00;100056.44;4847400;29;20037;-84
2022/09/01 00:34:31;;;;;;;17.48;10.60;;;;;;;16.08;100.00;100054.19;4851326;29;20066;-85
2022/09/01 00:36:57;;;;;;;18.20;10.27;;;;;;;16.06;100.00;100050.94;4852282;29;20133;-84
2022/09/01 00:39:22;;;;;;;21.75;10.77;;;;;;;15.89;100.00;100047.91;4849231;29;20040;-85
2022/09/01 00:41:54;;;;;;;16.77;10.20;;;;;;;15.82;100.00;100047.03;4864913;29;20033;-85
2022/09/01 00:44:26;;;;;;;16.27;9.98;;;;;;;15.67;100.00;100049.88;4849703;29;20030;-86
2022/09/01 00:46:55;;;;;;;20.05;9.98;;;;;;;15.81;100.00;100056.81;4831454;29;20520;-85
2022/09/01 00:49:29;;;;;;;18.65;10.13;;;;;;;15.94;100.00;100060.53;4849461;29;20038;-84
2022/09/01 00:52:03;;;;;;;17.90;10.05;;;;;;;15.73;100.00;100043.81;4847781;29;20026;-84
2022/09/01 00:54:32;;;;;;;;;;;;;;;15.71;100.00;100061.69;4848584;29;20400;-84
2022/09/01 00:57:01;;;;;;;20.63;10.15;;;;;;;15.71;100.00;100046.66;4847143;29;19965;-84
2022/09/01 00:59:28;;;;;;;17.55;10.30;;;;;;;15.75;100.00;100052.34;4847342;29;20094;-84
2022/09/01 01:01:55;;;;;;;22.83;10.15;;;;;;;15.72;100.00;100047.44;4852779;29;20041;-84
2022/09/01 01:04:21;;;;;;;19.60;9.93;;;;;;;15.74;100.00;100053.38;4849490;29;20030;-84
2022/09/01 01:06:57;;;;;;;20.17;10.35;;;;;;;15.89;100.00;100041.78;4862340;29;20093;-84
2022/09/01 01:09:31;;;;;;;20.08;9.93;;;;;;;15.87;100.00;100039.31;4849014;29;20032;-83
2022/09/01 01:11:59;;;;;;;21.75;10.95;;;;;;;15.73;100.00;100035.03;4846182;29;20042;-85
2022/09/01 01:14:30;;;;;;;29.13;12.48;;;;;;;15.77;100.00;100042.38;4847620;29;20436;-84
2022/09/01 01:16:59;;;;;;;28.38;12.93;;;;;;;15.48;100.00;100025.06;4849372;29;20061;-84
2022/09/01 01:25:23;;;;;;;21.17;12.88;;;;;;;15.66;100.00;100027.09;4850998;29;20478;-84
2022/09/01 01:28:02;;;;;;;24.63;13.48;;;;;;;15.64;100.00;100029.13;4850987;29;20093;-84
2022/09/01 01:30:34;;;;;;;26.70;13.98;;;;;;;15.57;100.00;100029.94;4848900;29;20067;-84
2022/09/01 01:33:00;;;;;;;25.88;14.60;;;;;;;15.62;100.00;100026.66;4851670;29;20030;-84
2022/09/01 01:35:26;;;;;;;26.15;14.63;;;;;;;15.40;100.00;100015.47;4842999;29;20031;-83
2022/09/01 01:37:53;;;;;;;19.48;14.00;;;;;;;15.48;100.00;100019.78;4850349;29;20044;-85
2022/09/01 01:40:20;;;;;;;19.77;12.60;;;;;;;15.57;100.00;100018.53;4846656;29;20446;-84
2022/09/01 01:42:50;;;;;;;28.25;12.57;;;;;;;15.65;100.00;100026.28;4850105;29;20053;-83
2022/09/01 01:45:19;;;;;;;20.30;12.70;;;;;;;15.65;100.00;100022.81;4849404;29;20037;-84
2022/09/01 01:47:51;;;;;;;23.40;12.95;;;;;;;15.62;100.00;100015.28;4845649;29;20110;-84
2022/09/01 01:50:34;;;;;;;19.75;13.18;;;;;;;15.64;100.00;100029.13;4863721;29;20029;-84
2022/09/01 01:53:04;;;;;;;18.55;11.88;;;;;;;15.56;100.00;100027.50;4846211;29;20077;-83
2022/09/01 01:55:32;;;;;;;21.33;13.80;;;;;;;15.59;100.00;100023.63;4850708;29;20060;-84
2022/09/01 01:57:59;;;;;;;22.38;13.95;;;;;;;15.62;100.00;100026.66;4847794;29;20030;-82
2022/09/01 02:00:33;;;;;;;22.90;13.73;;;;;;;15.53;100.00;100018.16;4848770;29;20034;-84
2022/09/01 02:02:59;;;;;;;24.45;13.77;;;;;;;15.49;100.00;100008.97;4848448;29;20117;-85
2022/09/01 02:05:30;;;;;;;25.48;13.15;;;;;;;15.51;100.00;100004.28;4830706;29;20091;-84
2022/09/01 02:08:07;;;;;;;22.05;13.00;;;;;;;15.49;100.00;100008.16;4848523;29;20403;-85
2022/09/01 02:10:37;;;;;;;16.73;12.60;;;;;;;15.62;100.00;100021.38;4846602;29;20037;-85
2022/09/01 02:13:06;;;;;;;19.75;12.70;;;;;;;15.67;100.00;100010.19;4849422;29;20053;-83
2022/09/01 02:15:43;;;;;;;20.60;12.95;;;;;;;15.67;100.00;100004.91;4845430;29;20511;-85
2022/09/01 02:18:19;;;;;;;26.35;13.85;;;;;;;15.54;100.00;100013.66;4849116;29;20144;-85
2022/09/01 02:20:48;;;;;;;19.77;12.95;;;;;;;15.44;100.00;100015.91;4861680;29;20038;-85
2022/09/01 02:23:16;;;;;;;22.98;12.27;;;;;;;15.32;100.00;100015.66;4848970;29;20052;-85
2022/09/01 02:25:45;;;;;;;20.90;11.57;;;;;;;15.19;100.00;99987.38;4851398;29;20042;-83
2022/09/01 02:28:17;;;;;;;25.77;12.00;;;;;;;15.34;100.00;100013.66;4849428;29;20053;-85
2022/09/01 02:30:50;;;;;;;23.05;12.85;;;;;;;15.24;100.00;99993.69;4844146;29;20038;-85
2022/09/01 02:33:18;;;;;;;22.50;13.30;;;;;;;15.30;100.00;100007.94;4847238;29;20033;-85
2022/09/01 02:35:45;;;;;;;23.25;12.80;;;;;;;15.22;100.00;100006.31;4831657;29;20125;-85
2022/09/01 02:38:12;;;;;;;24.30;12.73;;;;;;;15.35;100.00;99994.91;4862981;29;20392;-85
2022/09/01 02:40:44;;;;;;;19.98;12.15;;;;;;;15.31;100.00;100004.28;4867883;29;20034;-84
2022/09/01 02:43:10;;;;;;;24.10;11.98;;;;;;;15.25;100.00;100003.25;4848585;29;20038;-84
2022/09/01 02:45:37;;;;;;;20.48;11.75;;;;;;;15.33;100.00;100001.41;4851996;29;20513;-84
2022/09/01 02:48:08;;;;;;;19.85;10.65;;;;;;;15.19;100.00;99993.50;4849410;29;20650;-84
2022/09/01 02:50:36;;;;;;;23.67;12.07;;;;;;;15.34;100.00;99997.78;4847143;29;20542;-84
2022/09/01 02:53:05;;;;;;;18.70;12.23;;;;;;;15.24;100.00;99993.69;4842495;29;20061;-83
2022/09/01 02:55:31;;;;;;;26.00;11.45;;;;;;;15.20;100.00;99996.94;4845381;29;20099;-84
2022/09/01 02:57:58;;;;;;;21.35;12.25;;;;;;;15.19;100.00;99982.91;4832279;29;20045;-83
2022/09/01 03:00:32;;;;;;;23.15;11.55;;;;;;;15.26;100.00;99994.31;4844795;29;20100;-84
2022/09/01 03:02:59;;;;;;;28.00;12.85;;;;;;;15.15;100.00;99989.63;4849053;29;20073;-83
2022/09/01 03:05:29;;;;;;;19.58;12.02;;;;;;;15.11;100.00;99977.78;4850025;29;20050;-85
2022/09/01 03:07:58;;;;;;;15.13;10.90;;;;;;;15.27;100.00;99995.13;4848798;29;20026;-84
2022/09/01 03:10:31;;;;;;;18.20;10.50;;;;;;;15.31;100.00;99987.59;4858015;29;20573;-84
2022/09/01 03:13:19;;;;;;;23.23;11.25;;;;;;;15.26;100.00;99975.00;4851420;29;20037;-83
2022/09/01 03:15:45;;;;;;;14.73;8.93;;;;;;;15.36;100.00;99982.53;4853398;29;20037;-83
2022/09/01 03:18:12;;;;;;;18.73;9.60;;;;;;;15.25;100.00;99982.09;4853394;29;20448;-84
2022/09/01 03:20:42;;;;;;;20.63;10.63;;;;;;;15.28;100.00;99992.25;4848642;29;20037;-84
2022/09/01 03:23:14;;;;;;;16.92;9.93;;;;;;;15.33;100.00;99990.84;4854100;29;20395;-84
2022/09/01 03:25:42;;;;;;;21.13;9.73;;;;;;;15.12;100.00;99974.97;4834493;29;20034;-83
2022/09/01 03:28:08;;;;;;;19.45;10.30;;;;;;;15.23;100.00;99978.84;4850089;29;20033;-84
2022/09/01 03:30:39;;;;;;;18.20;10.20;;;;;;;15.26;100.00;99978.44;4844236;29;20069;-84
2022/09/01 03:33:06;;;;;;;19.60;10.68;;;;;;;15.32;100.00;99973.34;4852742;29;20038;-84
2022/09/01 03:35:33;;;;;;;19.83;9.20;;;;;;;15.30;100.00;99964.78;4851206;29;20387;-85
2022/09/01 03:38:00;;;;;;;17.23;9.38;;;;;;;15.32;100.00;99962.75;4868412;29;20037;-85
2022/09/01 03:40:31;;;;;;;18.92;9.77;;;;;;;15.33;100.00;99974.97;4863902;29;20038;-86
2022/09/01 03:43:02;;;;;;;22.25;8.63;;;;;;;15.33;100.00;99959.09;4857876;29;20048;-83
2022/09/01 03:45:34;;;;;;;28.50;9.40;;;;;;;15.33;100.00;99970.50;4868191;29;20541;-84
2022/09/01 03:48:05;;;;;;;19.80;9.23;;;;;;;15.36;100.00;99974.59;4851804;29;20034;-85
2022/09/01 03:50:33;;;;;;;21.92;10.45;;;;;;;15.25;100.00;99968.06;4851942;29;20415;-84
2022/09/01 03:53:00;;;;;;;20.27;9.43;;;;;;;15.30;100.00;99970.09;4851031;29;20048;-84
2022/09/01 03:55:30;;;;;;;17.75;11.50;;;;;;;15.30;100.00;99967.44;4851262;29;20060;-84
2022/09/01 03:58:05;;;;;;;20.35;11.32;;;;;;;15.29;100.00;99964.00;4852295;29;20033;-84
2022/09/01 04:00:34;;;;;;;20.95;11.60;;;;;;;15.17;100.00;99961.16;4854947;29;20036;-83
2022/09/01 04:03:02;;;;;;;25.15;11.77;;;;;;;15.11;100.00;99965.41;4849990;29;20101;-84
2022/09/01 04:05:29;;;;;;;18.98;10.88;;;;;;;15.17;100.00;99965.59;4847795;29;20045;-85
2022/09/01 04:07:56;;;;;;;21.35;11.80;;;;;;;15.19;100.00;99963.56;4850440;29;20040;-83
2022/09/01 04:10:23;;;;;;;14.40;10.25;;;;;;;15.21;100.00;99965.00;4852956;29;20041;-85
2022/09/01 04:12:57;;;;;;;22.23;11.27;;;;;;;15.15;100.00;99960.53;4853264;29;20051;-84
2022/09/01 04:15:24;;;;;;;17.67;10.85;;;;;;;15.22;100.00;99958.69;4850637;29;20492;-84
2022/09/01 04:18:09;;;;;;;21.52;11.05;;;;;;;15.20;100.00;99962.56;4851974;29;20042;-84
2022/09/01 04:20:48;;;;;;;20.65;11.02;;;;;;;15.24;100.00;99955.88;4851021;29;20477;-84
2022/09/01 04:23:16;;;;;;;21.00;9.02;;;;;;;15.33;100.00;99953.81;4849813;29;20484;-84
2022/09/01 04:25:42;;;;;;;22.63;10.30;;;;;;;15.21;100.00;99943.03;4846683;29;20513;-85
2022/09/01 04:28:16;;;;;;;22.73;10.20;;;;;;;15.32;100.00;99952.19;4849091;29;20044;-86
2022/09/01 04:30:42;;;;;;;18.63;8.88;;;;;;;15.35;100.00;99941.22;4852703;29;20029;-84
2022/09/01 04:33:09;;;;;;;14.63;9.20;;;;;;;15.35;100.00;99935.94;4852566;29;20037;-85
2022/09/01 04:35:39;;;;;;;15.30;9.50;;;;;;;15.30;100.00;99947.09;4851008;29;20876;-85
2022/09/01 04:38:07;;;;;;;15.57;10.70;;;;;;;15.20;100.00;99942.22;4851202;29;20045;-86
2022/09/01 04:40:38;;;;;;;26.65;13.60;;;;;;;15.13;100.00;99949.31;4846766;29;20061;-84
2022/09/01 04:43:05;;;;;;;21.35;10.68;;;;;;;15.16;100.00;99933.06;4846541;29;20484;-84
2022/09/01 04:45:33;;;;;;;19.90;10.77;;;;;;;15.20;100.00;99936.94;4849045;29;20129;-84
2022/09/01 04:47:59;;;;;;;22.63;11.35;;;;;;;15.22;100.00;99937.53;4850749;29;20038;-84
2022/09/01 04:50:29;;;;;;;24.23;11.93;;;;;;;15.13;100.00;99928.16;4850992;29;20037;-84
2022/09/01 04:53:00;;;;;;;20.95;11.02;;;;;;;15.09;100.00;99935.72;4850471;29;20048;-82
2022/09/01 04:55:28;;;;;;;18.75;11.82;;;;;;;15.02;100.00;99936.72;4851924;29;20041;-84
2022/09/01 04:57:57;;;;;;;22.42;13.27;;;;;;;14.98;100.00;99942.41;4851946;29;20507;-84
2022/09/01 05:00:25;;;;;;;25.20;12.95;;;;;;;15.03;100.00;99933.84;4833151;29;20461;-84
2022/09/01 05:03:02;;;;;;;24.58;13.70;;;;;;;15.11;100.00;99943.41;4851142;29;20038;-85
2022/09/01 05:05:48;;;;;;;21.50;13.25;;;;;;;15.06;100.00;99933.47;4851643;29;20038;-85
2022/09/01 05:08:19;;;;;;;28.33;13.40;;;;;;;15.11;100.00;99919.63;4864475;29;20136;-83
2022/09/01 05:10:48;;;;;;;19.95;13.38;;;;;;;15.12;100.00;99931.81;4849839;29;20130;-85
2022/09/01 05:13:16;;;;;;;25.92;14.52;;;;;;;15.19;100.00;99932.66;4835385;29;20037;-84
2022/09/01 05:15:47;;;;;;;28.33;15.82;;;;;;;15.22;100.00;99932.25;4848323;29;20072;-84
2022/09/01 05:18:23;;;;;;;31.17;15.40;;;;;;;15.14;100.00;99921.88;4851770;29;20131;-84
2022/09/01 05:20:51;;;;;;;28.40;14.85;;;;;;;15.08;100.00;99925.31;4848238;29;20033;-84
2022/09/01 05:23:20;;;;;;;27.70;15.40;;;;;;;15.19;100.00;99931.84;4849022;29;20049;-84
2022/09/01 05:25:48;;;;;;;26.50;15.07;;;;;;;15.14;100.00;99924.53;4864123;29;20479;-84
2022/09/01 05:28:17;;;;;;;29.98;17.27;;;;;;;15.08;100.00;99930.59;4850701;29;20089;-83
2022/09/01 05:30:45;;;;;;;31.48;16.85;;;;;;;15.16;100.00;99932.25;4850733;29;20041;-84
2022/09/01 05:33:15;;;;;;;24.63;16.05;;;;;;;15.25;100.00;99926.56;4850438;29;20037;-84
2022/09/01 05:35:50;;;;;;;26.05;16.38;;;;;;;15.27;100.00;99932.44;4850389;29;20097;-83
2022/09/01 05:38:16;;;;;;;33.03;18.63;;;;;;;15.20;100.00;99918.41;4846573;29;20532;-83
2022/09/01 05:40:43;;;;;;;32.08;17.90;;;;;;;15.27;100.00;99926.38;4865523;29;20034;-84
2022/09/01 05:43:11;;;;;;;33.25;17.88;;;;;;;15.25;100.00;99921.25;4854884;29;20033;-83
2022/09/01 05:45:44;;;;;;;32.60;19.60;;;;;;;15.22;100.00;99915.56;4845028;29;20038;-83
2022/09/01 05:48:14;;;;;;;33.05;19.27;;;;;;;15.26;100.00;99925.53;4848817;29;20050;-83
2022/09/01 05:50:44;;;;;;;35.83;19.38;;;;;;;15.40;100.00;99928.19;4848942;29;20475;-83
2022/09/01 05:53:16;;;;;;;32.13;19.48;;;;;;;15.37;100.00;99925.94;4851095;29;20396;-83
2022/09/01 05:55:47;;;;;;;37.30;19.63;;;;;;;15.37;100.00;99928.59;4848774;29;20079;-83
2022/09/01 05:58:15;;;;;;;32.65;19.80;;;;;;;15.37;100.00;99925.94;4850116;29;20326;-83
2022/09/01 06:00:45;;;;;;;37.95;19.08;;;;;;;15.42;100.00;99921.66;4847712;29;20039;-84
2022/09/01 06:03:13;;;;;;;30.23;17.98;;;;;;;15.49;100.00;99919.00;4851501;29;20037;-84
2022/09/01 06:05:44;;;;;;;35.08;19.10;;;;;;;15.64;100.00;99928.56;4853741;29;20476;-84
2022/09/01 06:08:24;;;;;;;30.05;18.15;;;;;;;15.66;100.00;99908.00;4850952;29;20041;-83
2022/09/01 06:10:51;;;;;;;29.30;18.27;;;;;;;15.75;100.00;99925.31;4850197;29;20480;-85
2022/09/01 06:13:27;;;;;;;29.30;17.65;;;;;;;15.74;100.00;99917.56;4850740;29;20061;-83
2022/09/01 06:15:57;;;;;;;24.98;16.75;;;;;;;15.95;100.00;99924.47;4853640;29;20120;-84
2022/09/01 06:18:23;;;;;;;26.40;16.52;;;;;;;15.83;100.00;99911.84;4830842;29;20049;-83
2022/09/01 06:20:49;;;;;;;29.10;15.73;;;;;;;15.85;100.00;99909.78;4861867;29;20041;-83
2022/09/01 06:23:16;;;;;;;26.20;15.63;;;;;;;15.88;100.00;99924.44;4846214;29;20033;-84
2022/09/01 06:25:45;;;;;;;24.48;15.18;;;;;;;15.90;100.00;99932.19;4850261;29;20034;-84
2022/09/01 06:28:16;;;;;;;23.83;14.40;;;;;;;16.07;100.00;99933.38;4847112;29;20029;-83
2022/09/01 06:30:43;;;;;;;25.55;14.88;;;;;;;15.99;100.00;99921.19;4849546;29;20034;-83
2022/09/01 06:33:12;;;;;;;25.10;14.00;;;;;;;16.02;100.00;99930.56;4847525;29;20166;-83
2022/09/01 06:35:39;;;;;;;25.02;14.95;;;;;;;16.11;100.00;99926.66;4832650;29;20042;-84
2022/09/01 06:38:05;;;;;;;23.02;14.00;;;;;;;16.02;100.00;99912.00;4867036;29;20089;-83
2022/09/01 06:40:34;;;;;;;25.90;14.43;;;;;;;16.17;100.00;99926.84;4866077;29;20054;-82
2022/09/01 06:43:01;;;;;;;20.63;14.30;;;;;;;16.34;100.00;99943.06;4869395;29;20121;-82
2022/09/01 06:45:26;;;;;;;25.17;14.20;;;;;;;16.32;100.00;99934.53;4851419;29;20041;-82
2022/09/01 06:47:54;;;;;;;25.52;15.85;;;;;;;16.10;100.00;99932.94;4845514;29;20513;-84
2022/09/01 06:50:21;;;;;;;22.58;14.55;;;;;;;16.33;100.00;99926.38;4849198;29;20037;-84
2022/09/01 06:53:02;;;;;;;26.45;15.82;;;;;;;16.45;100.00;99936.28;4853648;29;20041;-84
2022/09/01 06:55:30;;;;;;;25.13;15.10;;;;;;;16.41;100.00;99926.13;4851455;29;20089;-85
2022/09/01 06:57:57;;;;;;;20.55;14.93;;;;;;;16.59;100.00;99924.59;4847506;29;20057;-83
2022/09/01 07:00:23;;;;;;;24.60;16.63;;;;;;;16.59;100.00;99915.84;4854004;29;20090;-84
2022/09/01 07:02:55;;;;;;;21.58;14.38;;;;;;;16.73;100.00;99928.00;4849477;29;20034;-85
2022/09/01 07:05:22;;;;;;;19.23;14.43;;;;;;;16.84;100.00;99926.50;4848793;29;20130;-84
2022/09/01 07:07:54;;;;;;;24.30;16.80;;;;;;;16.64;100.00;99923.97;4847482;29;20034;-85
2022/09/01 07:10:22;;;;;;;21.50;15.45;;;;;;;16.84;100.00;99931.78;4850570;29;20116;-83
2022/09/01 07:12:55;;;;;;;20.88;14.38;;;;;;;16.90;100.00;99927.47;4850246;29;20037;-86
2022/09/01 07:15:31;;;;;;;22.60;14.50;;;;;;;16.90;100.00;99925.66;4853708;29;20041;-84
2022/09/01 07:17:57;;;;;;;24.83;15.48;;;;;;;16.50;100.00;99931.16;4854468;29;20041;-85
2022/09/01 07:20:32;;;;;;;21.73;15.52;;;;;;;16.68;100.00;99928.63;4852788;29;20469;-81
2022/09/01 07:23:03;;;;;;;20.38;14.00;;;;;;;16.72;100.00;99928.22;4846163;29;20038;-83
2022/09/01 07:25:30;;;;;;;19.80;13.48;;;;;;;17.06;100.00;99926.16;4847963;29;20555;-84
2022/09/01 07:27:58;;;;;;;18.80;12.70;;;;;;;17.49;100.00;99921.94;4850492;29;20108;-83
2022/09/01 07:30:27;;;;;;;19.80;11.30;;;;;;;17.46;100.00;99922.38;4848908;29;20037;-83
2022/09/01 07:32:54;;;;;;;17.10;11.10;;;;;;;17.60;100.00;99921.25;4850351;29;20026;-83
2022/09/01 07:35:21;;;;;;;13.13;10.27;;;;;;;17.59;100.00;99930.25;4850473;29;20073;-82
2022/09/01 07:37:50;;;;;;;17.85;11.32;;;;;;;17.60;100.00;99939.00;4848913;29;20053;-84
2022/09/01 07:40:19;;;;;;;14.25;9.18;;;;;;;17.65;100.00;99937.31;4833488;29;20045;-84
2022/09/01 07:42:53;;;;;;;14.82;8.10;;;;;;;17.62;100.00;99931.63;4843472;29;20038;-85
2022/09/01 07:45:22;;;;;;;21.73;8.13;;;;;;;17.49;100.00;99914.81;4851489;29;20037;-85
2022/09/01 07:47:50;;;;;;;16.60;7.25;;;;;;;17.78;100.00;99925.75;4843769;29;20094;-84
2022/09/01 07:50:17;;;;;;;18.75;7.68;;;;;;;17.78;100.00;99927.59;4845481;29;20042;-83
2022/09/01 07:52:43;;;;;;;14.23;6.57;;;;;;;17.84;100.00;99908.94;4864093;29;20033;-84
2022/09/01 07:55:13;;;;;;;10.20;6.95;;;;;;;18.13;100.00;99925.19;4849647;29;20041;-82
2022/09/01 07:57:41;;;;;;;11.57;6.22;;;;;;;18.01;100.00;99928.78;4849544;29;20029;-82
2022/09/01 08:00:10;;;;;;;16.80;6.75;;;;;;;17.84;100.00;99919.56;4840972;29;20034;-83
2022/09/01 08:02:37;;;;;;;15.60;6.53;;;;;;;17.74;100.00;99908.66;4849052;29;20057;-82
2022/09/01 08:05:08;;;;;;;12.75;5.93;;;;;;;17.77;100.00;99908.19;4850820;29;20112;-82
2022/09/01 08:07:37;;;;;;;9.38;5.68;;;;;;;18.09;100.00;99909.91;4836522;29;20467;-82
2022/09/01 08:10:05;;;;;;;16.17;7.20;;;;;;;18.26;100.00;99916.25;4851532;29;20029;-82
2022/09/01 08:12:31;;;;;;;12.75;5.65;;;;;;;18.35;100.00;99894.66;4853090;29;20116;-82
2022/09/01 08:14:57;;;;;;;12.80;5.40;;;;;;;18.48;100.00;99907.00;4837094;29;20141;-82
2022/09/01 08:17:26;;;;;;;10.40;5.47;;;;;;;18.49;100.00;99882.03;4848625;29;20050;-82
2022/09/01 08:19:52;;;;;;;12.00;5.20;;;;;;;18.73;100.00;99898.84;4840336;29;20564;-82
2022/09/01 08:22:27;;;;;;;10.85;4.53;;;;;;;18.80;100.00;99907.56;4837256;29;20041;-83
2022/09/01 08:24:55;;;;;;;9.05;4.38;;;;;;;19.01;100.00;99904.59;4848467;29;20030;-83
2022/09/01 08:27:21;;;;;;;9.52;4.85;;;;;;;19.25;100.00;99884.94;4851049;29;20479;-82
2022/09/01 08:29:47;;;;;;;12.27;4.28;;;;;;;19.37;100.00;99905.44;4851156;29;20040;-82
2022/09/01 08:32:13;;;;;;;10.93;5.35;;;;;;;19.20;100.00;99892.81;4848898;29;20038;-83
2022/09/01 08:34:39;;;;;;;11.85;4.43;;;;;;;19.37;100.00;99902.78;4868738;29;20026;-83
2022/09/01 08:37:05;;;;;;;10.65;4.50;;;;;;;19.66;100.00;99905.56;4846806;29;20089;-81
2022/09/01 08:39:31;;;;;;;12.75;4.38;;;;;;;19.76;100.00;99889.78;4834266;29;20449;-82
2022/09/01 08:42:00;;;;;;;13.15;4.13;;;;;;;19.69;100.00;99905.09;4846280;29;20476;-83
2022/09/01 08:44:56;;;;;;;10.32;4.18;;;;;;;19.80;100.00;99906.13;4846188;29;20186;-84
2022/09/01 08:47:22;;;;;;;11.88;4.75;;;;;;;20.04;100.00;99912.22;4848251;29;20033;-83
2022/09/01 08:49:50;;;;;;;11.73;4.57;;;;;;;20.06;100.00;99901.34;4848978;29;20029;-83
2022/09/01 08:52:28;;;;;;;8.95;3.08;;;;;;;19.79;100.00;99899.16;4849232;29;20037;-84
2022/09/01 08:55:09;;;;;;;8.07;3.60;;;;;;;19.95;100.00;99903.81;4848090;29;20045;-84
2022/09/01 08:57:51;;;;;;;12.98;5.13;;;;;;;19.87;100.00;99904.13;4846681;29;20530;-83
2022/09/01 09:00:21;;;;;;;13.32;4.45;;;;;;;20.10;100.00;99895.31;4848794;29;20063;-83
2022/09/01 09:03:00;;;;;;;9.48;3.40;;;;;;;20.10;100.00;99884.63;4833434;29;20400;-83
2022/09/01 09:06:16;;;;;;;5.43;3.30;;;;;;;20.24;100.00;99901.16;4828749;29;20389;-83
2022/09/01 09:08:57;;;;;;;10.77;3.83;;;;;;;20.05;100.00;99897.88;4803189;29;20043;-83
2022/09/01 09:11:57;;;;;;;6.20;3.65;;;;;;;19.81;100.00;99889.88;4802589;29;20481;-82
2022/09/01 09:14:54;;;;;;;9.60;4.13;;;;;;;19.46;100.00;99888.09;4828417;29;20045;-81
2022/09/01 09:17:29;;;;;;;6.63;3.50;;;;;;;19.48;100.00;99888.66;4821337;29;20050;-83
2022/09/01 09:19:54;;;;;;;8.00;3.65;;;;;;;19.13;100.00;99870.84;4847365;29;20065;-81
2022/09/01 09:22:20;;;;;;;6.57;3.72;;;;;;;19.41;100.00;99882.63;4849913;29;20034;-82
2022/09/01 09:24:54;;;;;;;7.85;3.60;;;;;;;19.37;100.00;99876.16;4850625;29;20428;-83
2022/09/01 09:27:30;;;;;;;9.75;3.78;;;;;;;19.21;100.00;99886.44;4849835;29;20037;-82
2022/09/01 09:30:05;;;;;;;6.35;3.88;;;;;;;19.12;100.00;99871.88;4851627;29;20029;-83
2022/09/01 09:32:45;;;;;;;9.65;4.72;;;;;;;19.03;100.00;99871.41;4830860;29;20621;-83
2022/09/01 09:35:32;;;;;;;10.68;4.15;;;;;;;18.89;100.00;99878.78;4847052;29;20483;-83
2022/09/01 09:38:21;;;;;;;10.77;5.22;;;;;;;18.96;100.00;99871.50;4864974;29;20053;-83
2022/09/01 09:41:24;;;;;;;13.07;4.10;;;;;;;19.42;100.00;99865.63;4832205;29;20030;-84
2022/09/01 09:44:13;;;;;;;8.48;3.20;;;;;;;19.64;100.00;99862.34;4806563;29;20138;-81
2022/09/01 09:46:46;;;;;;;6.60;3.88;;;;;;;20.13;100.00;99867.34;4837642;29;20510;-81
2022/09/01 09:49:24;;;;;;;8.30;2.80;;;;;;;20.47;100.00;99859.44;4850144;29;20137;-81
2022/09/01 09:52:12;;;;;;;7.43;3.10;;;;;;;20.36;100.00;99861.13;4845447;29;20417;-81
2022/09/01 09:54:56;;;;;;;12.15;3.60;;;;;;;20.47;100.00;99861.31;4835119;29;20029;-81
2022/09/01 09:57:23;;;;;;;6.53;3.53;;;;;;;20.37;100.00;99856.59;4844531;29;20035;-80
2022/09/01 09:59:54;;;;;;;11.45;3.47;;;;;;;20.28;100.00;99864.19;4841036;29;20038;-81
2022/09/01 10:02:41;;;;;;;7.93;3.28;;;;;;;19.96;100.00;99857.47;4847631;29;20037;-80
2022/09/01 10:05:35;;;;;;;8.60;3.15;;;;;;;20.06;100.00;99859.50;4836918;29;20425;-80
2022/09/01 10:08:00;;;;;;;7.28;3.40;;;;;;;19.76;100.00;99855.16;4846787;29;20029;-80
2022/09/01 10:10:42;;;;;;;9.25;3.35;;;;;;;19.91;100.00;99859.19;4849098;29;20041;-81
2022/09/01 10:13:16;;;;;;;10.18;4.05;;;;;;;20.04;100.00;99852.78;4850983;29;20038;-80
2022/09/01 10:15:57;;;;;;;5.72;3.35;;;;;;;20.26;100.00;99852.94;4851113;29;20061;-80
2022/09/01 10:18:37;;;;;;;9.65;3.38;;;;;;;20.30;100.00;99851.41;4851422;29;20057;-80
2022/09/01 10:21:25;;;;;;;8.98;3.83;;;;;;;20.40;100.00;99834.78;4853216;29;20542;-81
2022/09/01 10:23:52;;;;;;;7.97;3.13;;;;;;;20.60;100.00;99833.53;4849180;29;20038;-80
2022/09/01 10:26:36;;;;;;;5.22;3.15;;;;;;;20.90;100.00;99853.75;4854186;29;20122;-81
2022/09/01 10:29:07;;;;;;;6.07;3.25;;;;;;;20.93;100.00;99848.75;4850224;29;20062;-80
2022/09/01 10:31:34;;;;;;;9.68;3.20;;;;;;;20.73;100.00;99840.41;4852389;29;20544;-80
2022/09/01 10:34:03;;;;;;;7.25;3.03;;;;;;;20.57;100.00;99823.34;4851094;29;20029;-80
2022/09/01 10:36:30;;;;;;;7.93;3.67;;;;;;;20.59;100.00;99837.25;4852931;29;20049;-80
2022/09/01 10:38:56;;;;;;;7.35;3.40;;;;;;;20.51;100.00;99843.78;4851518;29;20047;-81
2022/09/01 10:41:43;;;;;;;4.93;3.28;;;;;;;20.74;100.00;99834.81;4852363;29;20488;-81
2022/09/01 10:44:22;;;;;;;7.50;3.17;;;;;;;20.60;100.00;99828.97;4834144;29;20112;-81
2022/09/01 10:46:50;;;;;;;6.03;3.50;;;;;;;20.58;100.00;99830.28;4851809;29;20404;-81
2022/09/01 10:49:21;;;;;;;6.85;3.20;;;;;;;20.51;100.00;99839.22;4850635;29;20446;-80
2022/09/01 10:51:47;;;;;;;10.45;2.92;;;;;;;20.34;100.00;99809.06;4854648;29;20045;-82
2022/09/01 10:54:49;;;;;;;7.15;3.85;;;;;;;20.66;100.00;99829.88;4850223;29;20456;-81
2022/09/01 10:57:33;;;;;;;4.07;3.13;;;;;;;20.60;100.00;99828.97;4851415;29;20033;-80
2022/09/01 11:00:18;;;;;;;;;;;;;;;20.81;100.00;99829.34;4850999;29;20062;-81
2022/09/01 11:03:12;;;;;;;4.68;2.80;;;;;;;21.16;100.00;99817.56;4837042;29;19955;-81
2022/09/01 11:05:53;;;;;;;8.63;3.05;;;;;;;21.30;100.00;99803.88;4847008;29;20034;-81
2022/09/01 11:08:27;;;;;;;7.63;3.08;;;;;;;21.43;100.00;99808.88;4850506;29;20054;-81
2022/09/01 11:11:05;;;;;;;8.15;3.00;;;;;;;21.37;100.00;99809.84;4852821;29;20045;-81
2022/09/01 11:13:41;;;;;;;7.95;3.20;;;;;;;21.55;99.60;99801.53;4849756;29;20031;-81
2022/09/01 11:16:28;;;;;;;9.85;3.20;;;;;;;21.64;99.24;99793.88;4851361;29;20460;-80
2022/09/01 11:19:14;;;;;;;3.72;2.88;;;;;;;21.88;98.28;99792.84;4849066;29;20042;-81
2022/09/01 11:21:41;;;;;;;5.57;3.10;;;;;;;21.95;95.68;99782.75;4849936;29;20108;-81
2022/09/01 11:24:49;;;;;;;7.95;3.47;;;;;;;22.13;93.64;99792.31;4851124;29;20076;-81
2022/09/01 11:27:47;;;;;;;9.65;3.40;;;;;;;21.80;96.41;99792.22;4856761;29;20044;-81
2022/09/01 11:30:23;;;;;;;5.15;2.78;;;;;;;21.86;95.55;99786.94;4852230;29;20042;-81
2022/09/01 11:32:57;;;;;;;4.53;3.15;;;;;;;21.98;96.24;99792.94;4846378;29;20117;-81
2022/09/01 11:35:26;;;;;;;4.38;3.28;;;;;;;22.29;96.03;99781.72;4851589;29;20081;-81
2022/09/01 11:37:55;;;;;;;6.45;3.63;;;;;;;22.33;94.75;99767.59;4864919;29;20489;-81
2022/09/01 11:40:30;;;;;;;6.28;3.25;;;;;;;22.20;93.79;99776.03;4852979;29;20033;-80